Main page
METAR-TAF:

METAR-TAF

Airports :

Asunción, Paraguay

Silvio Pettirossi International Airport

latitude: 25-16S, longitude: 057-38W, elevation: 101 m

Current weather observation

The report was made 1 hour and 11 minutes ago, at 16:00 UTC
Wind 14 kt from the Northeast
Temperature 27°C
Humidity 45%
Pressure 1015 hPa
Visibility 10 km or more
no clouds below 1500 m and no cumulonimbus

METAR: SGAS 261600Z 05014KT CAVOK 27/14 Q1015

Time: 13:11 (17:11 UTC)

Forecast

The report was made 6 hours and 26 minutes ago, at 10:45 UTC
Forecast valid from 26 at 12 UTC to 27 at 12 UTC
Wind 12 kt from the Northeast
Visibility 10 km or more
no clouds below 1500 m and no cumulonimbus
Becoming
from 26 at 15 UTC to 26 at 18 UTC
Wind 12 kt from the North/Northeast with gusts up to 22 kt
Becoming
from 26 at 22 UTC to 27 at 01 UTC
Wind 10 kt from the East/Northeast

TAF: SGAS 261045Z 2612/2712 05012KT CAVOK TX29/2619Z TN19/2710Z BECMG 2615/2618 03012G22KT BECMG 2622/2701 07010KT

Weather observations and forecasts of more than 4000 airports (METAR and TAF reports).

The available stations are represented by yellow and red dots on the map.

Hover mouse over dot to see the name of the station.

Then click to see weather observations and forecasts.

To change the map : click on the green buttons with a black cross to zoom in, on the green button with a dash to zoom out, or on the green arrows for adjacent maps.


METAR-TAF: